sensor_id;sensor_type;location;lat;lon;timestamp;temperature;humidity
67275;DHT22;55463;52.324;5.122;2023-10-13T00:01:30;16.99;99.99
67275;DHT22;55463;52.324;5.122;2023-10-13T00:03:55;16.97;99.99
67275;DHT22;55463;52.324;5.122;2023-10-13T00:06:21;17.00;99.99
67275;DHT22;55463;52.324;5.122;2023-10-13T00:08:46;16.99;99.99
67275;DHT22;55463;52.324;5.122;2023-10-13T00:11:13;16.97;99.99
67275;DHT22;55463;52.324;5.122;2023-10-13T00:13:39;16.97;99.99
67275;DHT22;55463;52.324;5.122;2023-10-13T00:16:23;16.97;99.99
67275;DHT22;55463;52.324;5.122;2023-10-13T00:18:52;16.93;99.99
67275;DHT22;55463;52.324;5.122;2023-10-13T00:21:21;16.95;99.99
67275;DHT22;55463;52.324;5.122;2023-10-13T00:24:05;16.94;99.99
67275;DHT22;55463;52.324;5.122;2023-10-13T00:26:37;16.94;99.99
67275;DHT22;55463;52.324;5.122;2023-10-13T00:29:03;16.95;99.99
67275;DHT22;55463;52.324;5.122;2023-10-13T00:31:39;16.94;99.99
67275;DHT22;55463;52.324;5.122;2023-10-13T00:34:11;16.94;99.99
67275;DHT22;55463;52.324;5.122;2023-10-13T00:36:41;16.94;99.99
67275;DHT22;55463;52.324;5.122;2023-10-13T00:39:27;16.94;99.99
67275;DHT22;55463;52.324;5.122;2023-10-13T00:41:54;16.94;99.99
67275;DHT22;55463;52.324;5.122;2023-10-13T00:44:24;16.93;99.99
67275;DHT22;55463;52.324;5.122;2023-10-13T00:47:12;16.94;99.99
67275;DHT22;55463;52.324;5.122;2023-10-13T00:49:58;16.94;99.99
67275;DHT22;55463;52.324;5.122;2023-10-13T00:52:24;16.95;99.99
67275;DHT22;55463;52.324;5.122;2023-10-13T00:54:50;16.93;99.99
67275;DHT22;55463;52.324;5.122;2023-10-13T00:57:16;16.95;99.99
67275;DHT22;55463;52.324;5.122;2023-10-13T00:59:56;16.94;99.99
67275;DHT22;55463;52.324;5.122;2023-10-13T01:02:23;16.93;99.99
67275;DHT22;55463;52.324;5.122;2023-10-13T01:05:04;16.90;99.99
67275;DHT22;55463;52.324;5.122;2023-10-13T01:07:30;16.91;99.99
67275;DHT22;55463;52.324;5.122;2023-10-13T01:09:55;16.91;99.99
67275;DHT22;55463;52.324;5.122;2023-10-13T01:12:21;16.91;99.99
67275;DHT22;55463;52.324;5.122;2023-10-13T01:14:48;16.93;99.99
67275;DHT22;55463;52.324;5.122;2023-10-13T01:17:14;16.93;99.99
67275;DHT22;55463;52.324;5.122;2023-10-13T01:19:39;16.93;99.99
67275;DHT22;55463;52.324;5.122;2023-10-13T01:22:08;16.93;99.99
67275;DHT22;55463;52.324;5.122;2023-10-13T01:24:33;16.91;99.99
67275;DHT22;55463;52.324;5.122;2023-10-13T01:27:06;16.91;99.99
67275;DHT22;55463;52.324;5.122;2023-10-13T01:29:48;16.90;99.99
67275;DHT22;55463;52.324;5.122;2023-10-13T01:32:17;16.88;99.99
67275;DHT22;55463;52.324;5.122;2023-10-13T01:34:43;16.90;99.99
67275;DHT22;55463;52.324;5.122;2023-10-13T01:37:11;16.88;99.99
67275;DHT22;55463;52.324;5.122;2023-10-13T01:39:37;16.87;99.99
67275;DHT22;55463;52.324;5.122;2023-10-13T01:42:02;16.87;99.99
67275;DHT22;55463;52.324;5.122;2023-10-13T01:44:28;16.88;99.99
67275;DHT22;55463;52.324;5.122;2023-10-13T01:46:56;16.87;99.99
67275;DHT22;55463;52.324;5.122;2023-10-13T01:49:24;16.88;99.99
67275;DHT22;55463;52.324;5.122;2023-10-13T01:51:50;16.90;99.99
67275;DHT22;55463;52.324;5.122;2023-10-13T01:54:15;16.88;99.99
67275;DHT22;55463;52.324;5.122;2023-10-13T01:56:41;16.88;99.99
67275;DHT22;55463;52.324;5.122;2023-10-13T01:59:12;16.90;99.99
67275;DHT22;55463;52.324;5.122;2023-10-13T02:01:39;16.88;99.99
67275;DHT22;55463;52.324;5.122;2023-10-13T02:04:05;16.90;99.99
67275;DHT22;55463;52.324;5.122;2023-10-13T02:06:33;16.94;99.99
67275;DHT22;55463;52.324;5.122;2023-10-13T02:09:04;16.90;99.99
67275;DHT22;55463;52.324;5.122;2023-10-13T02:11:43;16.90;99.99
67275;DHT22;55463;52.324;5.122;2023-10-13T02:14:11;16.91;99.99
67275;DHT22;55463;52.324;5.122;2023-10-13T02:16:40;16.91;99.99
67275;DHT22;55463;52.324;5.122;2023-10-13T02:19:06;16.90;99.99
67275;DHT22;55463;52.324;5.122;2023-10-13T02:21:34;16.93;99.99
67275;DHT22;55463;52.324;5.122;2023-10-13T02:24:06;16.91;99.99
67275;DHT22;55463;52.324;5.122;2023-10-13T02:26:38;16.91;99.99
67275;DHT22;55463;52.324;5.122;2023-10-13T02:29:06;16.91;99.99
67275;DHT22;55463;52.324;5.122;2023-10-13T02:31:42;16.91;99.99
67275;DHT22;55463;52.324;5.122;2023-10-13T02:34:08;16.91;99.99
67275;DHT22;55463;52.324;5.122;2023-10-13T02:36:38;16.88;99.99
67275;DHT22;55463;52.324;5.122;2023-10-13T02:39:17;16.90;99.99
67275;DHT22;55463;52.324;5.122;2023-10-13T02:41:43;16.90;99.99
67275;DHT22;55463;52.324;5.122;2023-10-13T02:44:13;16.88;99.99
67275;DHT22;55463;52.324;5.122;2023-10-13T02:46:52;16.85;99.99
67275;DHT22;55463;52.324;5.122;2023-10-13T02:49:21;16.85;99.99
67275;DHT22;55463;52.324;5.122;2023-10-13T02:51:46;16.84;99.99
67275;DHT22;55463;52.324;5.122;2023-10-13T02:54:12;16.84;99.99
67275;DHT22;55463;52.324;5.122;2023-10-13T02:56:44;16.87;99.99
67275;DHT22;55463;52.324;5.122;2023-10-13T02:59:15;16.84;99.99
67275;DHT22;55463;52.324;5.122;2023-10-13T03:01:41;16.84;99.99
67275;DHT22;55463;52.324;5.122;2023-10-13T03:04:07;16.81;99.99
67275;DHT22;55463;52.324;5.122;2023-10-13T03:06:38;16.83;99.99
67275;DHT22;55463;52.324;5.122;2023-10-13T03:09:08;16.83;99.99
67275;DHT22;55463;52.324;5.122;2023-10-13T03:11:50;16.79;99.99
67275;DHT22;55463;52.324;5.122;2023-10-13T03:14:22;16.79;99.99
67275;DHT22;55463;52.324;5.122;2023-10-13T03:16:57;16.77;99.99
67275;DHT22;55463;52.324;5.122;2023-10-13T03:19:28;16.77;99.99
67275;DHT22;55463;52.324;5.122;2023-10-13T03:22:05;16.79;99.99
67275;DHT22;55463;52.324;5.122;2023-10-13T03:24:33;16.76;99.99
67275;DHT22;55463;52.324;5.122;2023-10-13T03:27:02;16.74;99.99
67275;DHT22;55463;52.324;5.122;2023-10-13T03:29:38;16.73;99.99
67275;DHT22;55463;52.324;5.122;2023-10-13T03:32:16;16.73;99.99
67275;DHT22;55463;52.324;5.122;2023-10-13T03:34:45;16.70;99.99
67275;DHT22;55463;52.324;5.122;2023-10-13T03:37:36;16.70;99.99
67275;DHT22;55463;52.324;5.122;2023-10-13T03:40:08;16.72;99.99
67275;DHT22;55463;52.324;5.122;2023-10-13T03:42:56;16.69;99.99
67275;DHT22;55463;52.324;5.122;2023-10-13T03:45:45;16.67;99.99
67275;DHT22;55463;52.324;5.122;2023-10-13T03:48:17;16.67;99.99
67275;DHT22;55463;52.324;5.122;2023-10-13T03:51:02;16.67;99.99
67275;DHT22;55463;52.324;5.122;2023-10-13T03:53:39;16.65;99.99
67275;DHT22;55463;52.324;5.122;2023-10-13T03:56:21;16.65;99.99
67275;DHT22;55463;52.324;5.122;2023-10-13T03:58:57;16.63;99.99
67275;DHT22;55463;52.324;5.122;2023-10-13T04:01:26;16.62;99.99
67275;DHT22;55463;52.324;5.122;2023-10-13T04:04:10;16.62;99.99
67275;DHT22;55463;52.324;5.122;2023-10-13T04:06:37;16.60;99.99
67275;DHT22;55463;52.324;5.122;2023-10-13T04:09:15;16.57;99.99
67275;DHT22;55463;52.324;5.122;2023-10-13T04:14:37;16.52;99.99
67275;DHT22;55463;52.324;5.122;2023-10-13T04:17:21;16.55;99.99
67275;DHT22;55463;52.324;5.122;2023-10-13T04:19:55;16.53;99.99
67275;DHT22;55463;52.324;5.122;2023-10-13T04:22:40;16.53;99.99
67275;DHT22;55463;52.324;5.122;2023-10-13T04:25:24;16.53;99.99
67275;DHT22;55463;52.324;5.122;2023-10-13T04:28:10;16.55;99.99
67275;DHT22;55463;52.324;5.122;2023-10-13T04:30:46;16.51;99.99
67275;DHT22;55463;52.324;5.122;2023-10-13T04:33:28;16.49;99.99
67275;DHT22;55463;52.324;5.122;2023-10-13T04:36:07;16.48;99.99
67275;DHT22;55463;52.324;5.122;2023-10-13T04:38:53;16.46;99.99
67275;DHT22;55463;52.324;5.122;2023-10-13T04:41:33;16.46;99.99
67275;DHT22;55463;52.324;5.122;2023-10-13T04:44:23;16.44;99.99
67275;DHT22;55463;52.324;5.122;2023-10-13T04:46:57;16.44;99.99
67275;DHT22;55463;52.324;5.122;2023-10-13T04:49:28;16.44;99.99
67275;DHT22;55463;52.324;5.122;2023-10-13T04:51:58;16.45;99.99
67275;DHT22;55463;52.324;5.122;2023-10-13T04:54:28;16.45;99.99
67275;DHT22;55463;52.324;5.122;2023-10-13T04:57:19;16.48;99.99
67275;DHT22;55463;52.324;5.122;2023-10-13T05:00:01;16.52;99.99
67275;DHT22;55463;52.324;5.122;2023-10-13T05:02:43;16.57;99.99
67275;DHT22;55463;52.324;5.122;2023-10-13T05:05:21;16.62;99.99
67275;DHT22;55463;52.324;5.122;2023-10-13T05:08:05;16.62;99.99
67275;DHT22;55463;52.324;5.122;2023-10-13T05:11:04;16.69;99.99
67275;DHT22;55463;52.324;5.122;2023-10-13T05:13:48;16.73;99.99
67275;DHT22;55463;52.324;5.122;2023-10-13T05:16:32;16.79;99.99
67275;DHT22;55463;52.324;5.122;2023-10-13T05:19:16;16.84;99.99
67275;DHT22;55463;52.324;5.122;2023-10-13T05:22:03;16.90;99.99
67275;DHT22;55463;52.324;5.122;2023-10-13T05:24:47;16.97;99.99
67275;DHT22;55463;52.324;5.122;2023-10-13T05:27:31;16.97;99.99
67275;DHT22;55463;52.324;5.122;2023-10-13T05:30:15;16.97;99.99
67275;DHT22;55463;52.324;5.122;2023-10-13T05:32:59;17.00;99.99
67275;DHT22;55463;52.324;5.122;2023-10-13T05:35:42;17.04;99.99
67275;DHT22;55463;52.324;5.122;2023-10-13T05:38:26;17.03;99.99
67275;DHT22;55463;52.324;5.122;2023-10-13T05:41:11;17.04;99.99
67275;DHT22;55463;52.324;5.122;2023-10-13T05:43:55;17.06;99.99
67275;DHT22;55463;52.324;5.122;2023-10-13T05:46:39;17.04;99.99
67275;DHT22;55463;52.324;5.122;2023-10-13T05:49:05;17.06;99.99
67275;DHT22;55463;52.324;5.122;2023-10-13T05:51:31;17.07;99.99
67275;DHT22;55463;52.324;5.122;2023-10-13T05:54:15;17.03;99.99
67275;DHT22;55463;52.324;5.122;2023-10-13T05:56:42;17.03;99.99
67275;DHT22;55463;52.324;5.122;2023-10-13T05:59:27;17.00;99.99
67275;DHT22;55463;52.324;5.122;2023-10-13T06:02:13;17.00;99.99
67275;DHT22;55463;52.324;5.122;2023-10-13T06:04:58;17.00;99.99
67275;DHT22;55463;52.324;5.122;2023-10-13T06:07:43;16.95;99.99
67275;DHT22;55463;52.324;5.122;2023-10-13T06:10:27;16.95;99.99
67275;DHT22;55463;52.324;5.122;2023-10-13T06:13:11;16.91;99.99
67275;DHT22;55463;52.324;5.122;2023-10-13T06:15:57;16.93;99.99
67275;DHT22;55463;52.324;5.122;2023-10-13T06:18:42;16.90;99.99
67275;DHT22;55463;52.324;5.122;2023-10-13T06:21:26;16.87;99.99
67275;DHT22;55463;52.324;5.122;2023-10-13T06:24:10;16.90;99.99
67275;DHT22;55463;52.324;5.122;2023-10-13T06:26:54;16.87;99.99
67275;DHT22;55463;52.324;5.122;2023-10-13T06:29:38;16.83;99.99
67275;DHT22;55463;52.324;5.122;2023-10-13T06:32:06;16.81;99.99
67275;DHT22;55463;52.324;5.122;2023-10-13T06:34:38;16.77;99.99
67275;DHT22;55463;52.324;5.122;2023-10-13T06:37:07;16.79;99.99
67275;DHT22;55463;52.324;5.122;2023-10-13T06:39:50;16.76;99.99
67275;DHT22;55463;52.324;5.122;2023-10-13T06:42:16;16.76;99.99
67275;DHT22;55463;52.324;5.122;2023-10-13T06:44:47;16.73;99.99
67275;DHT22;55463;52.324;5.122;2023-10-13T06:47:22;16.74;99.99
67275;DHT22;55463;52.324;5.122;2023-10-13T06:49:48;16.70;99.99
67275;DHT22;55463;52.324;5.122;2023-10-13T06:52:17;16.69;99.99
67275;DHT22;55463;52.324;5.122;2023-10-13T06:54:42;16.70;99.99
67275;DHT22;55463;52.324;5.122;2023-10-13T06:57:08;16.70;99.99
67275;DHT22;55463;52.324;5.122;2023-10-13T06:59:40;16.69;99.99
67275;DHT22;55463;52.324;5.122;2023-10-13T07:02:06;16.73;99.99
67275;DHT22;55463;52.324;5.122;2023-10-13T07:04:37;16.76;99.99
67275;DHT22;55463;52.324;5.122;2023-10-13T07:07:05;16.76;99.99
67275;DHT22;55463;52.324;5.122;2023-10-13T07:09:31;16.81;99.99
67275;DHT22;55463;52.324;5.122;2023-10-13T07:12:00;16.83;99.99
67275;DHT22;55463;52.324;5.122;2023-10-13T07:14:27;16.88;99.99
67275;DHT22;55463;52.324;5.122;2023-10-13T07:16:59;16.94;99.99
67275;DHT22;55463;52.324;5.122;2023-10-13T07:19:28;16.97;99.99
67275;DHT22;55463;52.324;5.122;2023-10-13T07:22:01;17.03;99.99
67275;DHT22;55463;52.324;5.122;2023-10-13T07:24:49;17.07;99.99
67275;DHT22;55463;52.324;5.122;2023-10-13T07:29:52;17.21;99.99
67275;DHT22;55463;52.324;5.122;2023-10-13T07:32:36;17.31;99.99
67275;DHT22;55463;52.324;5.122;2023-10-13T07:35:02;17.35;99.99
67275;DHT22;55463;52.324;5.122;2023-10-13T07:37:32;17.42;99.99
67275;DHT22;55463;52.324;5.122;2023-10-13T07:39:58;17.46;99.99
67275;DHT22;55463;52.324;5.122;2023-10-13T07:42:27;17.53;99.99
67275;DHT22;55463;52.324;5.122;2023-10-13T07:44:58;17.57;99.99
67275;DHT22;55463;52.324;5.122;2023-10-13T07:47:24;17.57;99.99
67275;DHT22;55463;52.324;5.122;2023-10-13T07:49:54;17.61;99.99
67275;DHT22;55463;52.324;5.122;2023-10-13T07:52:22;17.65;99.99
67275;DHT22;55463;52.324;5.122;2023-10-13T07:54:48;17.66;99.99
67275;DHT22;55463;52.324;5.122;2023-10-13T07:57:15;17.67;99.99
67275;DHT22;55463;52.324;5.122;2023-10-13T07:59:41;17.77;99.99
67275;DHT22;55463;52.324;5.122;2023-10-13T08:02:14;17.82;99.99
67275;DHT22;55463;52.324;5.122;2023-10-13T08:05:00;17.87;99.99
67275;DHT22;55463;52.324;5.122;2023-10-13T08:07:26;17.93;99.99
67275;DHT22;55463;52.324;5.122;2023-10-13T08:09:54;17.96;99.99
67275;DHT22;55463;52.324;5.122;2023-10-13T08:12:20;18.04;99.99
67275;DHT22;55463;52.324;5.122;2023-10-13T08:14:48;18.04;99.99
67275;DHT22;55463;52.324;5.122;2023-10-13T08:17:13;18.08;99.99
67275;DHT22;55463;52.324;5.122;2023-10-13T08:19:39;18.12;99.99
67275;DHT22;55463;52.324;5.122;2023-10-13T08:22:05;18.11;99.99
67275;DHT22;55463;52.324;5.122;2023-10-13T08:24:47;18.12;99.99
67275;DHT22;55463;52.324;5.122;2023-10-13T08:27:14;18.15;99.99
67275;DHT22;55463;52.324;5.122;2023-10-13T08:29:46;18.18;99.99
67275;DHT22;55463;52.324;5.122;2023-10-13T08:34:52;18.25;99.99
67275;DHT22;55463;52.324;5.122;2023-10-13T08:37:17;18.27;99.99
67275;DHT22;55463;52.324;5.122;2023-10-13T08:39:46;18.25;99.99
67275;DHT22;55463;52.324;5.122;2023-10-13T08:42:33;18.28;99.99
67275;DHT22;55463;52.324;5.122;2023-10-13T08:45:07;18.28;99.99
67275;DHT22;55463;52.324;5.122;2023-10-13T08:47:48;18.28;99.99
67275;DHT22;55463;52.324;5.122;2023-10-13T08:50:50;18.28;99.99
67275;DHT22;55463;52.324;5.122;2023-10-13T08:53:24;18.28;99.99
67275;DHT22;55463;52.324;5.122;2023-10-13T08:56:03;18.29;99.99
67275;DHT22;55463;52.324;5.122;2023-10-13T08:58:29;18.28;99.99
67275;DHT22;55463;52.324;5.122;2023-10-13T09:01:15;18.34;99.99
67275;DHT22;55463;52.324;5.122;2023-10-13T09:04:08;18.32;99.99
67275;DHT22;55463;52.324;5.122;2023-10-13T09:06:59;18.32;99.99
67275;DHT22;55463;52.324;5.122;2023-10-13T09:09:29;18.34;99.75
67275;DHT22;55463;52.324;5.122;2023-10-13T09:12:16;18.36;99.87
67275;DHT22;55463;52.324;5.122;2023-10-13T09:14:54;18.39;99.61
67275;DHT22;55463;52.324;5.122;2023-10-13T09:17:27;18.44;99.55
67275;DHT22;55463;52.324;5.122;2023-10-13T09:20:07;18.45;99.63
67275;DHT22;55463;52.324;5.122;2023-10-13T09:22:45;18.51;99.17
67275;DHT22;55463;52.324;5.122;2023-10-13T09:25:22;18.53;99.58
67275;DHT22;55463;52.324;5.122;2023-10-13T09:27:49;18.57;99.03
67275;DHT22;55463;52.324;5.122;2023-10-13T09:30:18;18.57;98.90
67275;DHT22;55463;52.324;5.122;2023-10-13T09:32:58;18.60;99.39
67275;DHT22;55463;52.324;5.122;2023-10-13T09:35:27;18.66;98.77
67275;DHT22;55463;52.324;5.122;2023-10-13T09:37:53;18.69;98.85
67275;DHT22;55463;52.324;5.122;2023-10-13T09:40:22;18.74;97.70
67275;DHT22;55463;52.324;5.122;2023-10-13T09:42:53;18.77;98.27
67275;DHT22;55463;52.324;5.122;2023-10-13T09:45:32;18.81;97.65
67275;DHT22;55463;52.324;5.122;2023-10-13T09:48:20;18.80;98.20
67275;DHT22;55463;52.324;5.122;2023-10-13T09:50:52;18.83;97.56
67275;DHT22;55463;52.324;5.122;2023-10-13T09:53:21;18.84;97.78
67275;DHT22;55463;52.324;5.122;2023-10-13T09:58:38;18.84;97.92
67275;DHT22;55463;52.324;5.122;2023-10-13T10:01:28;18.87;97.20
67275;DHT22;55463;52.324;5.122;2023-10-13T10:04:11;18.93;97.43
67275;DHT22;55463;52.324;5.122;2023-10-13T10:06:58;18.94;97.19
67275;DHT22;55463;52.324;5.122;2023-10-13T10:09:31;18.98;97.62
67275;DHT22;55463;52.324;5.122;2023-10-13T10:17:22;19.21;96.60
67275;DHT22;55463;52.324;5.122;2023-10-13T10:19:54;19.28;96.30
67275;DHT22;55463;52.324;5.122;2023-10-13T10:22:31;19.39;95.57
67275;DHT22;55463;52.324;5.122;2023-10-13T10:25:03;19.48;95.10
67275;DHT22;55463;52.324;5.122;2023-10-13T10:27:31;19.56;95.48
67275;DHT22;55463;52.324;5.122;2023-10-13T10:29:57;19.65;94.77
67275;DHT22;55463;52.324;5.122;2023-10-13T10:32:33;19.70;94.35
67275;DHT22;55463;52.324;5.122;2023-10-13T10:35:09;19.81;94.80
67275;DHT22;55463;52.324;5.122;2023-10-13T10:37:45;19.98;94.17
67275;DHT22;55463;52.324;5.122;2023-10-13T10:40:17;20.20;93.95
67275;DHT22;55463;52.324;5.122;2023-10-13T10:43:01;20.34;92.88
67275;DHT22;55463;52.324;5.122;2023-10-13T10:45:28;20.56;93.33
67275;DHT22;55463;52.324;5.122;2023-10-13T10:48:00;20.62;92.10
67275;DHT22;55463;52.324;5.122;2023-10-13T10:50:38;20.63;91.91
67275;DHT22;55463;52.324;5.122;2023-10-13T10:53:12;20.57;91.72
67275;DHT22;55463;52.324;5.122;2023-10-13T10:55:38;20.49;91.36
67275;DHT22;55463;52.324;5.122;2023-10-13T10:58:03;20.42;91.69
67275;DHT22;55463;52.324;5.122;2023-10-13T11:00:51;20.35;92.31
67275;DHT22;55463;52.324;5.122;2023-10-13T11:03:26;20.26;92.42
67275;DHT22;55463;52.324;5.122;2023-10-13T11:05:52;20.20;92.04
67275;DHT22;55463;52.324;5.122;2023-10-13T11:08:25;20.18;92.05
67275;DHT22;55463;52.324;5.122;2023-10-13T11:11:03;20.14;92.42
67275;DHT22;55463;52.324;5.122;2023-10-13T11:13:51;20.10;92.35
67275;DHT22;55463;52.324;5.122;2023-10-13T11:19:49;20.21;91.24
67275;DHT22;55463;52.324;5.122;2023-10-13T11:22:16;20.18;90.89
67275;DHT22;55463;52.324;5.122;2023-10-13T11:25:03;20.13;90.94
67275;DHT22;55463;52.324;5.122;2023-10-13T11:27:35;20.11;91.39
67275;DHT22;55463;52.324;5.122;2023-10-13T11:30:17;20.10;90.98
67275;DHT22;55463;52.324;5.122;2023-10-13T11:33:00;20.03;91.33
67275;DHT22;55463;52.324;5.122;2023-10-13T11:35:35;20.04;91.41
67275;DHT22;55463;52.324;5.122;2023-10-13T11:41:04;20.04;91.62
67275;DHT22;55463;52.324;5.122;2023-10-13T11:43:52;20.06;90.92
67275;DHT22;55463;52.324;5.122;2023-10-13T11:46:41;20.04;91.31
67275;DHT22;55463;52.324;5.122;2023-10-13T11:49:12;20.03;90.56
67275;DHT22;55463;52.324;5.122;2023-10-13T11:51:52;20.14;89.75
67275;DHT22;55463;52.324;5.122;2023-10-13T11:54:27;20.21;89.18
67275;DHT22;55463;52.324;5.122;2023-10-13T11:56:52;20.22;88.11
67275;DHT22;55463;52.324;5.122;2023-10-13T11:59:18;20.34;88.16
67275;DHT22;55463;52.324;5.122;2023-10-13T12:01:45;20.39;87.34
67275;DHT22;55463;52.324;5.122;2023-10-13T12:04:29;20.39;87.51
67275;DHT22;55463;52.324;5.122;2023-10-13T12:07:05;20.46;86.86
67275;DHT22;55463;52.324;5.122;2023-10-13T12:09:44;20.48;87.20
67275;DHT22;55463;52.324;5.122;2023-10-13T12:12:27;20.49;86.78
67275;DHT22;55463;52.324;5.122;2023-10-13T12:14:54;20.43;87.46
67275;DHT22;55463;52.324;5.122;2023-10-13T12:17:26;20.43;87.41
67275;DHT22;55463;52.324;5.122;2023-10-13T12:20:03;20.39;87.10
67275;DHT22;55463;52.324;5.122;2023-10-13T12:22:49;20.32;88.41
67275;DHT22;55463;52.324;5.122;2023-10-13T12:25:20;20.25;88.54
67275;DHT22;55463;52.324;5.122;2023-10-13T12:27:58;20.21;88.39
67275;DHT22;55463;52.324;5.122;2023-10-13T12:30:25;20.28;87.89
67275;DHT22;55463;52.324;5.122;2023-10-13T12:33:09;20.24;88.30
67275;DHT22;55463;52.324;5.122;2023-10-13T12:35:35;20.25;88.37
67275;DHT22;55463;52.324;5.122;2023-10-13T12:38:10;20.24;88.64
67275;DHT22;55463;52.324;5.122;2023-10-13T12:41:04;20.21;88.39
67275;DHT22;55463;52.324;5.122;2023-10-13T12:43:48;20.25;88.50
67275;DHT22;55463;52.324;5.122;2023-10-13T12:46:37;20.21;88.82
67275;DHT22;55463;52.324;5.122;2023-10-13T12:49:23;20.18;89.73
67275;DHT22;55463;52.324;5.122;2023-10-13T12:52:13;20.08;89.83
67275;DHT22;55463;52.324;5.122;2023-10-13T12:54:42;20.04;90.23
67275;DHT22;55463;52.324;5.122;2023-10-13T12:57:15;19.96;91.01
67275;DHT22;55463;52.324;5.122;2023-10-13T12:59:41;19.90;91.20
67275;DHT22;55463;52.324;5.122;2023-10-13T13:02:07;19.83;91.31
67275;DHT22;55463;52.324;5.122;2023-10-13T13:04:41;19.72;91.88
67275;DHT22;55463;52.324;5.122;2023-10-13T13:07:12;19.69;92.17
67275;DHT22;55463;52.324;5.122;2023-10-13T13:09:42;19.67;92.19
67275;DHT22;55463;52.324;5.122;2023-10-13T13:12:10;19.63;92.24
67275;DHT22;55463;52.324;5.122;2023-10-13T13:14:45;19.59;92.26
67275;DHT22;55463;52.324;5.122;2023-10-13T13:17:46;19.55;92.92
67275;DHT22;55463;52.324;5.122;2023-10-13T13:20:15;19.58;92.93
67275;DHT22;55463;52.324;5.122;2023-10-13T13:22:54;19.53;92.85
67275;DHT22;55463;52.324;5.122;2023-10-13T13:25:29;19.55;93.02
67275;DHT22;55463;52.324;5.122;2023-10-13T13:27:58;19.53;92.93
67275;DHT22;55463;52.324;5.122;2023-10-13T13:30:30;19.55;92.83
67275;DHT22;55463;52.324;5.122;2023-10-13T13:32:58;19.52;93.08
67275;DHT22;55463;52.324;5.122;2023-10-13T13:35:29;19.53;93.28
67275;DHT22;55463;52.324;5.122;2023-10-13T13:38:01;19.53;93.39
67275;DHT22;55463;52.324;5.122;2023-10-13T13:40:37;19.52;93.62
67275;DHT22;55463;52.324;5.122;2023-10-13T13:43:03;19.55;93.23
67275;DHT22;55463;52.324;5.122;2023-10-13T13:45:31;19.58;93.21
67275;DHT22;55463;52.324;5.122;2023-10-13T13:47:57;19.61;93.07
67275;DHT22;55463;52.324;5.122;2023-10-13T13:50:27;19.62;93.00
67275;DHT22;55463;52.324;5.122;2023-10-13T13:52:54;19.59;93.32
67275;DHT22;55463;52.324;5.122;2023-10-13T13:55:24;19.55;93.54
67275;DHT22;55463;52.324;5.122;2023-10-13T13:57:56;19.53;93.43
67275;DHT22;55463;52.324;5.122;2023-10-13T14:00:25;19.49;94.14
67275;DHT22;55463;52.324;5.122;2023-10-13T14:03:09;19.44;94.64
67275;DHT22;55463;52.324;5.122;2023-10-13T14:05:44;19.38;94.77
67275;DHT22;55463;52.324;5.122;2023-10-13T14:08:12;19.34;95.21
67275;DHT22;55463;52.324;5.122;2023-10-13T14:10:40;19.25;96.00
67275;DHT22;55463;52.324;5.122;2023-10-13T14:13:24;19.19;95.84
67275;DHT22;55463;52.324;5.122;2023-10-13T14:16:09;19.14;96.44
67275;DHT22;55463;52.324;5.122;2023-10-13T14:18:43;19.06;97.28
67275;DHT22;55463;52.324;5.122;2023-10-13T14:21:10;18.98;97.74
67275;DHT22;55463;52.324;5.122;2023-10-13T14:23:35;18.96;97.69
67275;DHT22;55463;52.324;5.122;2023-10-13T14:26:01;18.84;98.27
67275;DHT22;55463;52.324;5.122;2023-10-13T14:28:27;18.77;99.03
67275;DHT22;55463;52.324;5.122;2023-10-13T14:31:04;18.70;99.18
67275;DHT22;55463;52.324;5.122;2023-10-13T14:33:35;18.63;99.88
67275;DHT22;55463;52.324;5.122;2023-10-13T14:36:03;18.62;99.99
67275;DHT22;55463;52.324;5.122;2023-10-13T14:38:30;18.55;99.99
67275;DHT22;55463;52.324;5.122;2023-10-13T14:41:01;18.51;99.99
67275;DHT22;55463;52.324;5.122;2023-10-13T14:43:26;18.48;99.99
67275;DHT22;55463;52.324;5.122;2023-10-13T14:45:56;18.41;99.99
67275;DHT22;55463;52.324;5.122;2023-10-13T14:48:23;18.36;99.99
67275;DHT22;55463;52.324;5.122;2023-10-13T14:50:50;18.34;99.99
67275;DHT22;55463;52.324;5.122;2023-10-13T14:53:15;18.29;99.99
67275;DHT22;55463;52.324;5.122;2023-10-13T14:55:45;18.31;99.99
67275;DHT22;55463;52.324;5.122;2023-10-13T14:58:10;18.31;99.99
67275;DHT22;55463;52.324;5.122;2023-10-13T15:00:44;18.32;99.99
67275;DHT22;55463;52.324;5.122;2023-10-13T15:03:11;18.31;99.99
67275;DHT22;55463;52.324;5.122;2023-10-13T15:05:40;18.29;99.99
67275;DHT22;55463;52.324;5.122;2023-10-13T15:08:11;18.29;99.99
67275;DHT22;55463;52.324;5.122;2023-10-13T15:10:37;18.28;99.99
67275;DHT22;55463;52.324;5.122;2023-10-13T15:13:03;18.25;99.99
67275;DHT22;55463;52.324;5.122;2023-10-13T15:15:30;18.24;99.99
67275;DHT22;55463;52.324;5.122;2023-10-13T15:17:57;18.22;99.99
67275;DHT22;55463;52.324;5.122;2023-10-13T15:20:26;18.25;99.99
67275;DHT22;55463;52.324;5.122;2023-10-13T15:22:52;18.24;99.99
67275;DHT22;55463;52.324;5.122;2023-10-13T15:25:25;18.22;99.99
67275;DHT22;55463;52.324;5.122;2023-10-13T15:28:01;18.21;99.99
67275;DHT22;55463;52.324;5.122;2023-10-13T15:30:33;18.19;99.99
67275;DHT22;55463;52.324;5.122;2023-10-13T15:33:17;18.18;99.99
67275;DHT22;55463;52.324;5.122;2023-10-13T15:35:45;18.17;99.99
67275;DHT22;55463;52.324;5.122;2023-10-13T15:38:11;18.18;99.99
67275;DHT22;55463;52.324;5.122;2023-10-13T15:40:46;18.19;99.99
67275;DHT22;55463;52.324;5.122;2023-10-13T15:43:12;18.18;99.99
67275;DHT22;55463;52.324;5.122;2023-10-13T15:45:38;18.18;99.99
67275;DHT22;55463;52.324;5.122;2023-10-13T15:48:08;18.21;99.99
67275;DHT22;55463;52.324;5.122;2023-10-13T15:50:38;18.18;99.99
67275;DHT22;55463;52.324;5.122;2023-10-13T15:53:07;18.17;99.99
67275;DHT22;55463;52.324;5.122;2023-10-13T15:55:36;18.19;99.99
67275;DHT22;55463;52.324;5.122;2023-10-13T15:58:03;18.17;99.99
67275;DHT22;55463;52.324;5.122;2023-10-13T16:00:38;18.15;99.99
67275;DHT22;55463;52.324;5.122;2023-10-13T16:03:04;18.14;99.99
67275;DHT22;55463;52.324;5.122;2023-10-13T16:05:37;18.17;99.99
67275;DHT22;55463;52.324;5.122;2023-10-13T16:08:07;18.15;99.99
67275;DHT22;55463;52.324;5.122;2023-10-13T16:10:37;18.12;99.99
67275;DHT22;55463;52.324;5.122;2023-10-13T16:13:03;18.17;99.99
67275;DHT22;55463;52.324;5.122;2023-10-13T16:15:30;18.15;99.99
67275;DHT22;55463;52.324;5.122;2023-10-13T16:17:56;18.15;99.99
67275;DHT22;55463;52.324;5.122;2023-10-13T16:20:21;18.19;99.99
67275;DHT22;55463;52.324;5.122;2023-10-13T16:22:48;18.21;99.99
67275;DHT22;55463;52.324;5.122;2023-10-13T16:25:14;18.19;99.99
67275;DHT22;55463;52.324;5.122;2023-10-13T16:27:41;18.21;99.99
67275;DHT22;55463;52.324;5.122;2023-10-13T16:30:12;18.22;99.99
67275;DHT22;55463;52.324;5.122;2023-10-13T16:32:42;18.24;99.99